Latest Coastal Weather Observations for Maningrida Airport

IDD60701

Issued at 6:21 am CST Tuesday 19 June 2018 (issued every 10 minutes, with the page automatically refreshed every 10 minutes)

About coastal observations | Map of coastal stations | Coastal observations for NT | Marine services | Other Formats
Station Details ID: 014405 Name: MANINGRIDA AIRPORT Lat: -12.06 Lon: 134.23 Height: 28.1 m
Data from the previous 72 hours. | See also: Recent months at Maningrida Airport
Date/Time
CST
Temp
°C
Wind Pressure Rain since
9am
mm
Weather Cloud Vis
km
Sea
Height
m
Swell
Dir  Spd
kts
Gust
kts
hPa Trend Height
m
Period
s
Dir
19/06:00am 20.8 SSE 10 15 1014.5 - 0.0 - - 10 - - - -
19/05:30am 21.0 SSE 11 16 1014.1 - 0.0 - - 10 - - - -
19/05:00am 21.2 SSE 11 17 1014.0 - 0.0 - Partly cloudy 10 - - - -
19/04:30am 21.1 SSE 11 16 1014.0 - 0.0 - Partly cloudy 10 - - - -
19/04:00am 20.6 SSE 9 15 1013.8 - 0.0 - - 10 - - - -
19/03:30am 20.5 SSE 9 12 1013.9 - 0.0 - - 10 - - - -
19/03:00am 20.5 SE 9 13 1014.2 - 0.0 - - 10 - - - -
19/02:30am 20.7 SE 10 15 1014.3 - 0.0 - - 10 - - - -
19/02:00am 20.9 SSE 9 14 1014.4 - 0.0 - - 10 - - - -
19/01:30am 21.3 SSE 9 13 1014.6 - 0.0 - - 10 - - - -
19/01:00am 21.7 S 6 11 1014.9 - 0.0 - - 10 - - - -
19/12:30am 22.0 SSE 6 8 1015.3 - 0.0 - - 10 - - - -
19/12:00am 22.4 S 7 10 1015.3 - 0.0 - - 10 - - - -
 
Date/Time
CST
Temp
°C
Wind Pressure Rain since
9am
mm
Weather Cloud Vis
km
Sea
Height
m
Swell
Dir  Spd
kts
Gust
kts
hPa Trend Height
m
Period
s
Dir
18/11:30pm 22.6 SSE 7 10 1015.4 - 0.0 - - 10 - - - -
18/11:00pm 22.8 SSE 7 10 1015.3 - 0.0 - - 10 - - - -
18/10:30pm 23.4 SE 9 11 1015.2 - 0.0 - - 10 - - - -
18/10:00pm 23.7 SE 9 13 1015.2 - 0.0 - - 10 - - - -
18/09:30pm 24.0 SE 9 11 1015.2 - 0.0 - - 10 - - - -
18/09:00pm 24.3 SE 8 10 1015.0 - 0.0 - - 10 - - - -
18/08:30pm 24.7 ESE 7 11 1014.7 - 0.0 - - 8 - - - -
18/08:00pm 25.1 ESE 7 9 1014.5 - 0.0 - - 8 - - - -
18/07:30pm 26.0 SE 7 9 1014.0 - 0.0 - - 10 - - - -
18/07:00pm 26.6 SE 8 11 1013.7 - 0.0 - - 10 - - - -
18/06:30pm 27.1 SE 8 10 1013.3 - 0.0 - - 10 - - - -
18/06:00pm 27.9 SE 9 13 1013.2 - 0.0 - - 10 - - - -
18/05:30pm 28.8 SE 10 13 1012.8 - 0.0 - Partly cloudy 10 - - - -
18/05:00pm 29.4 SE 11 15 1012.4 - 0.0 - - 10 - - - -
18/04:30pm 29.4 SE 12 16 1012.2 - 0.0 - Partly cloudy 10 - - - -
18/04:00pm 30.2 SE 11 16 1012.0 - 0.0 - Partly cloudy 10 - - - -
18/03:30pm 30.5 SE 10 18 1012.0 - 0.0 - Partly cloudy 10 - - - -
18/03:00pm 30.7 ESE 10 16 1011.9 - 0.0 - - 10 - - - -
18/02:30pm 30.3 SE 11 17 1011.9 - 0.0 - - 10 - - - -
18/02:00pm 29.8 SE 13 19 1012.1 - 0.0 - - 10 - - - -
18/01:30pm 29.5 SE 13 19 1012.4 - 0.0 - - 10 - - - -
18/01:00pm 29.3 SSE 10 15 1012.8 - 0.0 - - 10 - - - -
18/12:30pm 28.7 SSE 13 18 1013.2 - 0.0 - - 10 - - - -
18/12:00pm 28.8 SSE 10 16 1013.6 - 0.0 - - 10 - - - -
18/11:30am 27.3 SSE 13 21 1014.1 - 0.0 - - 10 - - - -
18/11:00am 27.4 SSE 12 18 1014.3 - 0.0 - - 10 - - - -
18/10:30am 26.1 SSE 13 22 1014.5 - 0.0 - - 10 - - - -
18/10:00am 25.6 SSE 15 22 1014.7 - 0.0 - - 10 - - - -
18/09:32am 24.7 SSE 15 25 1014.8 - 0.0 - Partly cloudy 10 - - - -
18/09:30am 24.4 SSE 16 25 1014.8 - 0.0 - Partly cloudy 10 - - - -
18/09:05am 23.9 SSE 17 27 1015.0 - 0.0 - Partly cloudy 10 - - - -
18/09:00am 24.2 SSE 16 24 1015.0 - 0.0 - Partly cloudy 10 - - - -
18/08:30am 23.2 SSE 15 26 1015.0 - 0.0 - Cloudy 10 - - - -
18/08:28am 23.0 SSE 15 26 1015.0 - 0.0 - Cloudy 10 - - - -
18/08:00am 22.3 SSE 13 19 1014.8 - 0.0 - Cloudy 10 - - - -
18/07:30am 22.0 SSE 13 20 1014.5 - 0.0 - Partly cloudy 10 - - - -
18/07:00am 22.1 SSE 13 21 1014.0 - 0.0 - Partly cloudy 10 - - - -
18/06:30am 22.6 SSE 14 22 1013.9 - 0.0 - Partly cloudy 10 - - - -
18/06:00am 22.6 SSE 13 23 1013.5 - 0.0 - Mostly cloudy 10 - - - -
18/05:30am 22.5 SSE 11 19 1013.4 - 0.0 - Partly cloudy 10 - - - -
18/05:00am 22.6 S 10 14 1013.7 - 0.0 - Partly cloudy 10 - - - -
18/04:30am 22.7 SSE 11 15 1013.9 - 0.0 - Partly cloudy 10 - - - -
18/04:00am 22.9 SE 11 15 1014.0 - 0.0 - Partly cloudy 10 - - - -
18/03:30am 22.8 SSE 11 17 1014.0 - 0.0 - Partly cloudy 10 - - - -
18/03:00am 23.0 SSE 10 15 1014.1 - 0.0 - Cloudy 10 - - - -
18/02:30am 23.2 SSE 12 17 1014.4 - 0.0 - Cloudy 10 - - - -
18/02:00am 23.0 SSE 10 15 1014.7 - 0.0 - Cloudy 10 - - - -
18/01:30am 23.1 SSE 10 17 1015.1 - 0.0 - Cloudy 10 - - - -
18/01:00am 23.0 SSE 12 16 1015.3 - 0.0 - Cloudy 10 - - - -
18/12:30am 23.2 SSE 12 17 1015.5 - 0.0 - Cloudy 10 - - - -
18/12:00am 23.3 SE 13 19 1015.7 - 0.0 - Cloudy 10 - - - -
 
Date/Time
CST
Temp
°C
Wind Pressure Rain since
9am
mm
Weather Cloud Vis
km
Sea
Height
m
Swell
Dir  Spd
kts
Gust
kts
hPa Trend Height
m
Period
s
Dir
17/11:30pm 22.9 SSE 8 12 1016.0 - 0.0 - Cloudy 10 - - - -
17/11:00pm 23.0 SSE 7 13 1016.0 - 0.0 - Partly cloudy 10 - - - -
17/10:30pm 23.4 SE 9 12 1016.2 - 0.0 - - 10 - - - -
17/10:00pm 23.8 SE 8 11 1016.3 - 0.0 - - 10 - - - -
17/09:30pm 24.3 SE 8 11 1016.0 - 0.0 - - 10 - - - -
17/09:00pm 24.9 SE 10 16 1015.4 - 0.0 - - 10 - - - -
17/08:30pm 25.3 SE 9 12 1015.0 - 0.0 - - 10 - - - -
17/08:00pm 25.8 SE 7 8 1014.4 - 0.0 - - 10 - - - -
17/07:30pm 25.7 SE 6 8 1013.9 - 0.0 - - 10 - - - -
17/07:00pm 26.1 SE 5 8 1013.4 - 0.0 - - 10 - - - -
17/06:30pm 27.4 SE 7 10 1013.0 - 0.0 - - 10 - - - -
17/06:00pm 28.2 SSE 7 9 1012.5 - 0.0 - - 10 - - - -
17/05:30pm 29.3 SE 11 15 1012.3 - 0.0 - - 10 - - - -
17/05:00pm 29.8 SE 11 17 1012.1 - 0.0 - - 10 - - - -
17/04:30pm 30.1 SSE 11 16 1011.8 - 0.0 - - 10 - - - -
17/04:00pm 30.1 SSE 11 17 1011.7 - 0.0 - - 10 - - - -
17/03:30pm 30.2 SSE 12 21 1011.8 - 0.0 - - 10 - - - -
17/03:00pm 29.9 SSE 13 20 1012.0 - 0.0 - - 10 - - - -
17/02:30pm 30.1 SSE 13 19 1012.1 - 0.0 - - 10 - - - -
17/02:00pm 29.6 SE 13 20 1012.5 - 0.0 - - 10 - - - -
17/01:30pm 29.8 SE 13 19 1013.2 - 0.0 - - 10 - - - -
17/01:00pm 29.1 SE 13 18 1013.5 - 0.0 - - 10 - - - -
17/12:30pm 28.6 SE 15 22 1014.2 - 0.0 - - 10 - - - -
17/12:00pm 27.8 SSE 13 18 1014.6 - 0.0 - - 10 - - - -
17/11:30am 27.4 SE 15 22 1015.0 - 0.0 - - 10 - - - -
17/11:00am 26.4 SSE 15 21 1015.4 - 0.0 - - 10 - - - -
17/10:30am 26.1 SSE 15 23 1015.7 - 0.0 - - 10 - - - -
17/10:00am 25.1 SSE 16 23 1016.1 - 0.0 - - 10 - - - -
17/09:30am 24.5 SSE 16 21 1016.2 - 0.0 - - 10 - - - -
17/09:00am 23.7 SSE 15 21 1016.2 - 0.0 - - 10 - - - -
17/08:30am 23.2 SSE 16 25 1016.0 - 0.0 - - 10 - - - -
17/08:00am 22.6 SSE 14 22 1015.8 - 0.0 - - 10 - - - -
17/07:30am 21.9 SSE 12 18 1015.7 - 0.0 - - 10 - - - -
17/07:00am 21.4 SSE 12 17 1015.5 - 0.0 - - 10 - - - -
17/06:30am 21.3 SSE 10 16 1015.4 - 0.0 - - 10 - - - -
17/06:00am 21.4 SSE 11 16 1015.3 - 0.0 - - 10 - - - -
17/05:30am 21.0 SSE 9 13 1015.1 - 0.0 - - 10 - - - -
17/05:00am 20.6 S 6 9 1015.1 - 0.0 - - 10 - - - -
17/04:30am 21.1 SSE 7 11 1014.9 - 0.0 - - 10 - - - -
17/04:00am 21.3 SSE 9 13 1014.7 - 0.0 - - 10 - - - -
17/03:30am 21.4 SSE 9 12 1014.6 - 0.0 - - 10 - - - -
17/03:00am 21.6 S 7 11 1015.1 - 0.0 - - 10 - - - -
17/02:30am 22.0 SSE 9 13 1015.4 - 0.0 - - 10 - - - -
17/02:00am 22.1 SSE 9 12 1015.3 - 0.0 - - 10 - - - -
17/01:30am 22.4 SSE 8 12 1015.4 - 0.0 - - 10 - - - -
17/01:00am 22.7 SSE 7 12 1015.8 - 0.0 - - 10 - - - -
17/12:30am 23.0 SSE 8 11 1016.3 - 0.0 - Partly cloudy 10 - - - -
17/12:00am 23.4 SE 10 15 1016.3 - 0.0 - - 10 - - - -
 
Date/Time
CST
Temp
°C
Wind Pressure Rain since
9am
mm
Weather Cloud Vis
km
Sea
Height
m
Swell
Dir  Spd
kts
Gust
kts
hPa Trend Height
m
Period
s
Dir
16/11:30pm 23.6 SSE 11 16 1016.3 - 0.0 - Partly cloudy 10 - - - -
16/11:00pm 24.0 SSE 9 13 1016.2 - 0.0 - - 10 - - - -
16/10:30pm 24.6 SSE 10 14 1016.3 - 0.0 - - 10 - - - -
16/10:00pm 25.0 SSE 9 14 1016.2 - 0.0 - - 10 - - - -
16/09:30pm 25.4 SE 9 13 1015.8 - 0.0 - - 10 - - - -
16/09:00pm 25.8 SSE 10 16 1015.5 - 0.0 - - 10 - - - -
16/08:30pm 26.0 SSE 9 13 1015.3 - 0.0 - - 10 - - - -
16/08:00pm 26.3 SSE 7 11 1014.9 - 0.0 - - 10 - - - -
16/07:30pm 27.2 SE 9 12 1014.5 - 0.0 - - 10 - - - -
16/07:00pm 27.7 SE 11 14 1014.1 - 0.0 - - 10 - - - -
16/06:30pm 28.1 SE 12 18 1013.7 - 0.0 - - 10 - - - -
16/06:00pm 28.9 SE 11 20 1013.4 - 0.0 - - 10 - - - -
16/05:30pm 29.5 SE 12 15 1013.0 - 0.0 - - 10 - - - -
16/05:00pm 30.1 SE 12 17 1012.7 - 0.0 - - 10 - - - -
16/04:30pm 29.8 SE 9 13 1012.8 - 0.0 - Partly cloudy 10 - - - -
16/04:00pm 30.4 SE 11 15 1012.6 - 0.0 - Cloudy 10 - - - -
16/03:30pm 30.6 SE 13 16 1012.7 - 0.0 - Partly cloudy 10 - - - -
16/03:00pm 31.2 SE 13 21 1012.6 - 0.0 - - 10 - - - -
16/02:30pm 31.1 SE 13 21 1013.0 - 0.0 - - 10 - - - -
16/02:00pm 30.9 SE 14 22 1013.4 - 0.0 - Partly cloudy 10 - - - -
16/01:30pm 30.5 SE 13 18 1013.8 - 0.0 - Partly cloudy 10 - - - -
16/01:00pm 29.4 SE 15 23 1014.3 - 0.0 - Partly cloudy 10 - - - -
16/12:30pm 29.9 ESE 12 20 1014.7 - 0.0 - Partly cloudy 10 - - - -
16/12:00pm 30.2 ESE 13 20 1015.2 - 0.0 - - 10 - - - -
16/11:30am 29.8 ESE 13 19 1015.4 - 0.0 - - 10 - - - -
16/11:00am 28.9 SE 13 18 1015.5 - 0.0 - - 10 - - - -
16/10:30am 27.9 SE 13 18 1015.9 - 0.0 - - 10 - - - -
16/10:00am 27.8 SE 12 18 1016.2 - 0.0 - - 10 - - - -
16/09:30am 26.5 SE 13 19 1016.4 - 0.0 - - 10 - - - -
16/09:00am 25.1 SE 13 18 1016.3 - 0.0 - - 10 - - - -
16/08:30am 25.1 SE 13 18 1016.1 - 0.0 - - 10 - - - -
16/08:00am 23.6 SSE 11 18 1016.0 - 0.0 - - 10 - - - -
16/07:30am 22.6 SSE 9 15 1015.9 - 0.0 - - 10 - - - -
16/07:00am 22.3 SSE 9 14 1015.3 - 0.0 - - 10 - - - -
16/06:30am 22.2 SSE 8 13 1015.2 - 0.0 - - 10 - - - -

Other Formats:

Comma delimited format used in spreadsheet applications
http://www.bom.gov.au/fwo/IDD60701/IDD60701.95142.axf

JavaScript Object Notation format (JSON) in row-major order
http://www.bom.gov.au/fwo/IDD60701/IDD60701.95142.json